Kezdőlap
METAR-TAF:

METAR-TAF

Repülőterek :

Kanszai nemzetközi repülőtér

Kanszai, Japán

földrajzi szélesség: 34-25N, földrajzi hosszúság: 135-15E, magasság: 5 m

Jelenlegi meteorológiai megfigyelések

A jelentés 23 perccel ezelõtt készült, 18:00 UTC
Délkeleti szél 2 kt
Hőmérséklet 18°C
Páratartalom 88%
Légköri nyomás 1016 hPa
Látótávolság 10 km, vagy több

METAR: RJBB 201800Z AUTO 14002KT 9999 NCD 18/16 Q1016 NOSIG

Idő: 03:23 (18:23 UTC)

Előrejelzés

A jelentés 1 órával és 18 perccel ezelõtt készült, 17:05 UTC
Az előrejelzés 20-én 18 óra UTC és 22-én 00 óra UTC között érvényes
Északkeleti szél 6 kt
Látótávolság 10 km, vagy több
Kevés felhő 2000 lábon
21-én 02 óra UTC és 21-én 04 óra UTC között fokozatosan kialakuló
Nyugat-északnyugati szél 4 kt
21-én 06 óra UTC és 21-én 09 óra UTC között fokozatosan kialakuló
Északkeleti szél 12 kt

TAF: RJBB 201705Z 2018/2200 05006KT 9999 FEW020 BECMG 2102/2104 30004KT BECMG 2106/2109 04012KT

Meteorológiai megfigyelések és előrejelzések több, mint 4000 repülőtéren (METAR és TAF jelentéseket).

A térképen piros és sárga pontok jelzik az elérhető meteorológiai állomásokat.

Mozgassa az egeret a pont fölött, hogy megjelenjen az állomás neve.

Azután kattintson az időjárási megfigyelések és előrejelzések megtekintéséhez.

A térkép megváltoztatása: kattintson a fekete keresztel jelölt zöld gombra ráközelítéshez, a vonallal jelölt zöld gombra távolításhoz, vagy a zöld nyilakra a szomszédos térképek eléréséhez.


METAR-TAF: